Terminal Aerodrome Forecast
Issued by NWS

Home | Current Version | Previous Version | Text Only | Print | Product List | Glossary On
Versions: 1 2 3 4 5 6 7 8 9 10 11 12
000
FTUS41 KPHI 271736
TAFMIV
TAF
KMIV 271736Z 2718/2818 19008KT P6SM SCT050
     FM280100 VRB03KT P6SM SCT250
     FM281400 21006KT P6SM SCT050=

USA.gov is the U.S. government's official web portal to all federal, state and local government web resources and services.